Time;durP1;ratioP1;P1;durP2;ratioP2;P2;SDS_P1;SDS_P2;PMS_P1;PMS_P2;Temp;Humidity;BMP_temperature;BMP_pressure;BME280_temperature;BME280_humidity;BME280_pressure;Samples;Min_cycle;Max_cycle;Signal;HPM_P1;HPM_P2
2022/11/14 00:01:57;;;;;;;63.78;28.70;;;;;;;3.54;100.00;101611.97;5055076;28;20098;-73
2022/11/14 00:04:45;;;;;;;69.25;28.98;;;;;;;3.51;100.00;101618.16;5024229;28;20414;-72
2022/11/14 00:07:30;;;;;;;64.22;28.75;;;;;;;3.50;100.00;101612.94;5014771;28;20087;-73
2022/11/14 00:10:15;;;;;;;66.57;30.02;;;;;;;3.32;100.00;101608.94;5021205;28;20211;-73
2022/11/14 00:12:59;;;;;;;69.32;29.73;;;;;;;3.19;100.00;101604.81;5021187;28;20056;-73
2022/11/14 00:15:44;;;;;;;74.97;30.25;;;;;;;3.13;100.00;101600.53;5022816;28;20180;-73
2022/11/14 00:18:28;;;;;;;77.13;30.27;;;;;;;3.18;100.00;101595.19;5016564;28;20052;-73
2022/11/14 00:21:12;;;;;;;67.55;29.17;;;;;;;3.15;100.00;101592.59;5014549;28;20168;-72
2022/11/14 00:23:56;;;;;;;69.13;28.73;;;;;;;3.06;100.00;101596.28;5017051;28;20121;-72
2022/11/14 00:26:40;;;;;;;74.10;31.20;;;;;;;3.09;100.00;101586.53;5008399;28;20065;-73
2022/11/14 00:29:23;;;;;;;77.00;31.27;;;;;;;3.03;100.00;101588.44;5015016;28;20057;-73
2022/11/14 00:32:07;;;;;;;81.35;32.47;;;;;;;2.98;100.00;101591.16;5015809;28;20095;-73
2022/11/14 00:34:51;;;;;;;71.40;30.58;;;;;;;2.88;100.00;101594.88;5015807;28;20128;-73
2022/11/14 00:37:35;;;;;;;76.03;29.92;;;;;;;2.90;100.00;101584.31;5029329;28;20048;-73
2022/11/14 00:40:19;;;;;;;81.55;29.23;;;;;;;2.96;100.00;101586.81;5015169;28;20648;-73
2022/11/14 00:43:03;;;;;;;84.50;32.63;;;;;;;2.89;100.00;101579.94;5019447;28;20065;-74
2022/11/14 00:45:47;;;;;;;76.15;31.17;;;;;;;2.83;100.00;101576.53;5021834;28;20079;-73
2022/11/14 00:48:31;;;;;;;78.57;31.67;;;;;;;2.85;100.00;101564.19;5016636;28;20052;-72
2022/11/14 00:51:15;;;;;;;87.97;34.40;;;;;;;2.81;100.00;101565.19;5025902;28;20521;-73
2022/11/14 00:53:59;;;;;;;82.60;32.55;;;;;;;2.74;100.00;101560.03;5017914;28;20196;-73
2022/11/14 00:56:44;;;;;;;82.75;32.63;;;;;;;2.71;100.00;101563.63;5020708;28;20129;-73
2022/11/14 00:59:28;;;;;;;89.93;34.38;;;;;;;2.65;100.00;101561.06;5012572;28;20045;-73
2022/11/14 01:02:12;;;;;;;87.78;33.05;;;;;;;2.57;100.00;101555.13;5013258;28;20100;-73
2022/11/14 01:04:56;;;;;;;85.82;33.38;;;;;;;2.46;100.00;101560.59;5054842;28;20059;-73
2022/11/14 01:07:40;;;;;;;87.47;35.45;;;;;;;2.60;100.00;101555.03;5059910;28;20039;-73
2022/11/14 01:10:24;;;;;;;82.95;33.85;;;;;;;2.61;100.00;101548.91;5060600;28;20141;-73
2022/11/14 01:13:09;;;;;;;82.90;32.03;;;;;;;2.51;100.00;101544.69;5069418;28;20051;-74
2022/11/14 01:15:54;;;;;;;86.35;35.15;;;;;;;2.47;100.00;101541.25;5062253;28;20047;-72
2022/11/14 01:18:38;;;;;;;92.07;37.83;;;;;;;2.50;100.00;101542.94;5057071;28;20079;-73
2022/11/14 01:21:23;;;;;;;89.00;36.70;;;;;;;2.55;100.00;101535.81;5060993;28;20055;-73
2022/11/14 01:24:07;;;;;;;98.97;35.42;;;;;;;2.52;100.00;101543.81;5060632;28;20097;-73
2022/11/14 01:26:54;;;;;;;90.45;35.72;;;;;;;2.45;100.00;101542.16;5065713;28;20126;-73
2022/11/14 01:29:38;;;;;;;96.05;36.10;;;;;;;2.32;100.00;101536.28;5069211;28;20060;-73
2022/11/14 01:32:22;;;;;;;95.90;36.53;;;;;;;2.28;100.00;101531.97;5064392;28;20454;-73
2022/11/14 01:35:06;;;;;;;94.47;34.88;;;;;;;2.30;100.00;101528.38;5061415;28;20117;-73
2022/11/14 01:37:50;;;;;;;93.90;36.45;;;;;;;2.25;100.00;101530.22;5069205;28;20049;-73
2022/11/14 01:40:41;;;;;;;98.50;36.85;;;;;;;2.24;100.00;101525.88;5070386;28;20178;-74
2022/11/14 01:43:26;;;;;;;91.60;35.70;;;;;;;2.22;100.00;101529.44;5061258;28;20099;-73
2022/11/14 01:46:21;;;;;;;106.40;37.92;;;;;;;2.28;100.00;101522.28;5059054;28;20047;-73
2022/11/14 01:49:14;;;;;;;94.95;38.45;;;;;;;2.32;100.00;101512.59;5069413;28;20039;-73
2022/11/14 01:52:02;;;;;;;97.47;35.63;;;;;;;2.17;100.00;101507.59;5058742;28;20055;-73
2022/11/14 01:54:50;;;;;;;98.13;37.92;;;;;;;2.21;100.00;101498.75;5067342;28;20409;-73
2022/11/14 01:57:41;;;;;;;117.22;38.10;;;;;;;2.24;100.00;101491.66;5062474;28;20051;-73
2022/11/14 02:00:25;;;;;;;107.57;37.08;;;;;;;2.22;100.00;101495.25;5067614;28;20133;-73
2022/11/14 02:03:13;;;;;;;99.75;37.80;;;;;;;2.27;100.00;101478.47;5061490;28;20646;-74
2022/11/14 02:05:58;;;;;;;114.38;39.50;;;;;;;2.29;100.00;101479.28;5071420;28;20698;-73
2022/11/14 02:08:43;;;;;;;115.72;38.33;;;;;;;2.20;100.00;101475.97;5072752;28;20058;-73
2022/11/14 02:11:33;;;;;;;107.35;37.47;;;;;;;2.24;100.00;101467.13;5083981;28;20826;-73
2022/11/14 02:14:18;;;;;;;116.07;40.10;;;;;;;2.17;100.00;101470.78;5060756;28;20182;-73
2022/11/14 02:17:03;;;;;;;118.60;39.13;;;;;;;2.14;100.00;101466.44;5066243;28;20822;-73
2022/11/14 02:20:15;;;;;;;112.38;38.22;;;;;;;1.97;100.00;101461.47;5064274;28;20332;-73
2022/11/14 02:22:59;;;;;;;121.22;39.38;;;;;;;1.94;100.00;101456.25;5085336;28;20556;-73
2022/11/14 02:25:43;;;;;;;112.68;37.80;;;;;;;1.82;100.00;101451.25;5073525;28;20611;-73
2022/11/14 02:28:27;;;;;;;105.57;38.60;;;;;;;1.87;100.00;101444.13;5063426;28;20047;-73
2022/11/14 02:31:12;;;;;;;111.32;38.05;;;;;;;1.84;100.00;101454.69;5059072;28;20047;-74
2022/11/14 02:33:56;;;;;;;113.55;40.22;;;;;;;1.78;100.00;101439.91;5074675;28;20040;-73
2022/11/14 02:36:40;;;;;;;129.82;38.72;;;;;;;1.83;100.00;101438.97;5070672;28;20123;-74
2022/11/14 02:39:24;;;;;;;117.63;40.20;;;;;;;1.93;100.00;101436.13;5065911;28;20047;-73
2022/11/14 02:42:08;;;;;;;118.65;38.80;;;;;;;1.88;100.00;101445.00;5053525;28;20051;-74
2022/11/14 02:44:52;;;;;;;126.28;39.05;;;;;;;1.83;100.00;101445.09;5072270;28;20119;-73
2022/11/14 02:47:36;;;;;;;121.35;38.08;;;;;;;1.77;100.00;101438.16;5065192;28;20047;-73
2022/11/14 02:50:20;;;;;;;107.80;37.15;;;;;;;1.68;100.00;101437.47;5064554;28;20147;-73
2022/11/14 02:53:04;;;;;;;125.50;37.90;;;;;;;1.70;100.00;101440.91;5065192;28;20056;-73
2022/11/14 02:55:48;;;;;;;108.60;39.17;;;;;;;1.62;100.00;101435.81;5066365;28;20136;-73
2022/11/14 02:58:32;;;;;;;114.32;38.17;;;;;;;1.43;100.00;101437.88;5063934;28;20123;-74
2022/11/14 03:01:16;;;;;;;116.82;40.83;;;;;;;1.43;100.00;101435.22;5061805;28;20412;-73
2022/11/14 03:04:00;;;;;;;117.82;40.53;;;;;;;1.49;100.00;101436.91;5076146;28;20055;-73
2022/11/14 03:06:44;;;;;;;119.25;39.95;;;;;;;1.45;100.00;101425.56;5059168;28;20070;-73
2022/11/14 03:09:28;;;;;;;123.88;38.88;;;;;;;1.50;100.00;101434.22;5074442;28;20109;-73
2022/11/14 03:12:18;;;;;;;122.55;38.75;;;;;;;1.58;100.00;101422.75;5078167;28;20051;-75
2022/11/14 03:15:03;;;;;;;110.25;38.35;;;;;;;1.52;100.00;101424.59;5066867;28;20082;-73
2022/11/14 03:17:48;;;;;;;119.32;38.88;;;;;;;1.53;100.00;101420.19;5062991;28;20051;-73
2022/11/14 03:20:33;;;;;;;109.38;36.67;;;;;;;1.53;100.00;101410.53;5073367;28;20097;-73
2022/11/14 03:23:17;;;;;;;126.28;40.28;;;;;;;1.51;100.00;101420.22;5065201;28;20082;-73
2022/11/14 03:26:03;;;;;;;113.25;38.67;;;;;;;1.33;100.00;101412.63;5066071;28;20051;-73
2022/11/14 03:28:47;;;;;;;109.95;35.78;;;;;;;1.31;100.00;101411.81;5071485;28;20051;-73
2022/11/14 03:31:31;;;;;;;108.97;36.30;;;;;;;1.27;100.00;101408.34;5051931;28;20121;-74
2022/11/14 03:34:15;;;;;;;114.55;37.95;;;;;;;1.28;100.00;101411.84;5072439;28;20749;-74
2022/11/14 03:36:59;;;;;;;104.97;38.90;;;;;;;1.28;100.00;101415.31;5072823;28;20811;-74
2022/11/14 03:39:43;;;;;;;114.82;37.67;;;;;;;1.17;100.00;101411.16;5069839;28;20117;-73
2022/11/14 03:42:27;;;;;;;108.50;34.33;;;;;;;0.91;100.00;101416.78;5067433;28;20123;-73
2022/11/14 03:45:11;;;;;;;118.53;37.25;;;;;;;1.03;100.00;101414.84;5069101;28;20074;-75
2022/11/14 03:47:55;;;;;;;118.18;38.22;;;;;;;1.06;100.00;101413.94;5062530;28;20051;-73
2022/11/14 03:50:40;;;;;;;122.18;37.92;;;;;;;1.22;100.00;101406.69;5069600;28;20551;-73
2022/11/14 03:53:25;;;;;;;143.35;40.47;;;;;;;1.19;100.00;101401.47;5069122;28;21160;-73
2022/11/14 03:56:09;;;;;;;134.43;38.55;;;;;;;1.29;100.00;101398.66;5065000;28;20177;-73
2022/11/14 03:58:53;;;;;;;122.57;37.72;;;;;;;1.25;100.00;101402.22;5060050;28;20114;-73
2022/11/14 04:01:37;;;;;;;124.13;37.60;;;;;;;1.16;100.00;101393.66;5062226;28;20055;-73
2022/11/14 04:04:21;;;;;;;109.30;35.65;;;;;;;1.21;100.00;101392.69;5061806;28;20091;-73
2022/11/14 04:07:06;;;;;;;146.45;42.20;;;;;;;1.21;100.00;101381.31;5066253;28;20467;-73
2022/11/14 04:09:50;;;;;;;119.68;40.15;;;;;;;1.11;100.00;101377.09;5063645;28;20055;-73
2022/11/14 04:12:35;;;;;;;135.63;41.60;;;;;;;1.14;100.00;101370.03;5059020;28;20761;-73
2022/11/14 04:15:19;;;;;;;117.28;37.25;;;;;;;1.01;100.00;101368.50;5066415;28;20047;-74
2022/11/14 04:18:03;;;;;;;125.53;38.53;;;;;;;1.05;100.00;101372.78;5064032;28;20826;-74
2022/11/14 04:20:47;;;;;;;136.80;39.17;;;;;;;1.07;100.00;101364.91;5069311;28;20150;-74
2022/11/14 04:23:31;;;;;;;120.10;38.45;;;;;;;1.22;100.00;101376.03;5062089;28;20058;-74
2022/11/14 04:26:15;;;;;;;132.13;39.83;;;;;;;1.19;100.00;101369.94;5069218;28;20068;-74
2022/11/14 04:28:59;;;;;;;101.50;37.97;;;;;;;0.94;100.00;101370.34;5068400;28;20495;-74
2022/11/14 04:31:43;;;;;;;112.10;36.42;;;;;;;0.91;100.00;101362.53;5072809;28;20075;-74
2022/11/14 04:34:27;;;;;;;132.15;39.72;;;;;;;0.87;100.00;101366.06;5066708;28;20215;-74
2022/11/14 04:37:12;;;;;;;112.07;37.00;;;;;;;0.81;100.00;101366.19;5063161;28;20094;-74
2022/11/14 04:39:59;;;;;;;107.68;35.70;;;;;;;0.80;100.00;101371.44;5061221;28;20110;-74
2022/11/14 04:42:43;;;;;;;133.27;36.97;;;;;;;0.79;100.00;101360.06;5063696;28;20059;-74
2022/11/14 04:45:27;;;;;;;110.25;37.22;;;;;;;0.75;100.00;101359.25;5062140;28;20178;-74
2022/11/14 04:48:12;;;;;;;109.68;36.22;;;;;;;0.73;100.00;101366.28;5068719;28;20129;-74
2022/11/14 04:50:56;;;;;;;119.03;37.08;;;;;;;0.80;100.00;101363.56;5069568;28;20044;-74
2022/11/14 04:53:40;;;;;;;111.15;36.75;;;;;;;0.82;100.00;101365.28;5066468;28;20047;-73
2022/11/14 04:56:24;;;;;;;104.72;35.13;;;;;;;0.89;100.00;101366.03;5050390;28;20052;-73
2022/11/14 04:59:08;;;;;;;109.82;35.78;;;;;;;0.86;100.00;101368.75;5054050;28;20131;-74
2022/11/14 05:01:52;;;;;;;111.95;35.88;;;;;;;0.77;100.00;101360.09;5063041;28;20213;-74
2022/11/14 05:04:36;;;;;;;112.43;36.88;;;;;;;0.68;100.00;101357.59;5059414;28;20134;-75
2022/11/14 05:07:20;;;;;;;110.35;37.08;;;;;;;0.68;100.00;101352.34;5061445;28;20055;-73
2022/11/14 05:10:04;;;;;;;114.95;37.20;;;;;;;0.66;100.00;101346.28;5054611;28;20048;-74
2022/11/14 05:12:52;;;;;;;108.57;35.75;;;;;;;0.47;100.00;101345.66;5061660;28;20047;-73
2022/11/14 05:15:36;;;;;;;110.80;37.28;;;;;;;0.38;100.00;101335.28;5058868;28;20055;-74
2022/11/14 05:18:20;;;;;;;133.38;37.35;;;;;;;0.58;100.00;101335.00;5058148;28;20124;-73
2022/11/14 05:21:05;;;;;;;113.07;36.08;;;;;;;0.73;100.00;101333.91;5061219;28;20067;-73
2022/11/14 05:23:49;;;;;;;122.57;36.88;;;;;;;0.70;100.00;101334.84;5066386;28;20058;-73
2022/11/14 05:26:33;;;;;;;115.32;36.33;;;;;;;0.73;100.00;101333.91;5067351;28;20039;-73
2022/11/14 05:29:17;;;;;;;114.50;37.15;;;;;;;0.76;100.00;101333.88;5055279;28;20055;-73
2022/11/14 05:32:01;;;;;;;112.85;34.50;;;;;;;0.70;100.00;101331.31;5063534;28;20417;-73
2022/11/14 05:34:45;;;;;;;100.28;35.17;;;;;;;0.59;100.00;101323.63;5071042;28;20083;-73
2022/11/14 05:37:29;;;;;;;117.13;38.22;;;;;;;0.71;100.00;101325.22;5064990;28;20097;-74
2022/11/14 05:40:15;;;;;;;115.45;34.58;;;;;;;0.65;100.00;101330.53;5065464;28;20047;-73
2022/11/14 05:42:59;;;;;;;95.75;33.17;;;;;;;0.60;100.00;101319.22;5068018;28;20099;-74
2022/11/14 05:45:43;;;;;;;106.35;33.70;;;;;;;0.66;100.00;101327.03;5068814;28;20093;-74
2022/11/14 05:48:28;;;;;;;122.07;36.72;;;;;;;0.74;100.00;101323.38;5069536;28;20546;-74
2022/11/14 05:51:12;;;;;;;109.10;37.20;;;;;;;0.78;100.00;101319.84;5076940;28;20634;-73
2022/11/14 05:53:56;;;;;;;114.32;37.50;;;;;;;0.79;100.00;101315.44;5064136;28;20480;-73
2022/11/14 05:56:40;;;;;;;100.93;34.58;;;;;;;0.74;100.00;101320.75;5063597;28;20040;-73
2022/11/14 05:59:24;;;;;;;93.65;31.42;;;;;;;0.71;100.00;101309.47;5065455;28;20104;-74
2022/11/14 06:02:08;;;;;;;97.10;32.75;;;;;;;0.63;100.00;101303.44;5064996;28;20050;-73
2022/11/14 06:04:52;;;;;;;108.45;36.50;;;;;;;0.64;100.00;101308.66;5066288;28;20114;-73
2022/11/14 06:07:37;;;;;;;105.65;32.78;;;;;;;0.63;100.00;101301.69;5067286;28;20086;-73
2022/11/14 06:10:22;;;;;;;93.57;33.33;;;;;;;0.62;100.00;101305.22;5068730;28;20066;-73
2022/11/14 06:13:06;;;;;;;116.03;35.75;;;;;;;0.62;100.00;101307.84;5076585;28;20078;-74
2022/11/14 06:15:50;;;;;;;108.30;34.95;;;;;;;0.67;100.00;101306.00;5064232;28;20062;-73
2022/11/14 06:18:35;;;;;;;102.38;33.33;;;;;;;0.77;100.00;101307.59;5060647;28;20523;-73
2022/11/14 06:21:21;;;;;;;103.38;33.03;;;;;;;0.81;100.00;101308.44;5067335;28;20047;-73
2022/11/14 06:24:05;;;;;;;100.82;33.38;;;;;;;0.84;100.00;101307.50;5063244;28;20575;-74
2022/11/14 06:26:50;;;;;;;97.18;32.72;;;;;;;0.80;100.00;101305.81;5066732;28;20094;-73
2022/11/14 06:29:34;;;;;;;104.25;34.60;;;;;;;0.76;100.00;101311.13;5064634;28;20897;-73
2022/11/14 06:32:18;;;;;;;94.75;34.40;;;;;;;0.80;100.00;101301.41;5065457;28;20055;-73
2022/11/14 06:35:02;;;;;;;104.68;34.30;;;;;;;0.78;100.00;101308.47;5060647;28;20051;-73
2022/11/14 06:37:46;;;;;;;104.88;34.75;;;;;;;0.97;100.00;101306.41;5078627;28;20075;-73
2022/11/14 06:40:30;;;;;;;100.82;31.13;;;;;;;0.99;100.00;101304.63;5066475;28;20055;-73
2022/11/14 06:43:14;;;;;;;102.82;32.50;;;;;;;1.03;100.00;101308.94;5073488;28;20133;-73
2022/11/14 06:45:58;;;;;;;101.32;32.22;;;;;;;0.98;100.00;101313.41;5065920;28;20055;-73
2022/11/14 06:48:43;;;;;;;99.20;32.45;;;;;;;0.92;100.00;101308.25;5064411;28;20039;-73
2022/11/14 06:51:27;;;;;;;96.55;31.52;;;;;;;0.95;100.00;101313.44;5068222;28;20047;-73
2022/11/14 06:54:12;;;;;;;93.85;32.47;;;;;;;1.01;100.00;101311.59;5060072;28;20182;-74
2022/11/14 06:56:55;;;;;;;101.78;32.60;;;;;;;1.12;100.00;101313.19;5067966;28;20574;-73
2022/11/14 06:59:39;;;;;;;105.78;32.67;;;;;;;1.13;100.00;101314.91;5066952;28;20129;-73
2022/11/14 07:02:23;;;;;;;92.93;32.60;;;;;;;1.10;100.00;101314.94;5064286;28;20136;-74
2022/11/14 07:05:07;;;;;;;95.95;31.50;;;;;;;1.13;100.00;101320.16;5065975;28;20515;-74
2022/11/14 07:07:51;;;;;;;91.20;31.15;;;;;;;1.11;100.00;101317.56;5066443;28;20145;-73
2022/11/14 07:10:35;;;;;;;86.45;29.65;;;;;;;1.18;100.00;101320.94;5058611;28;20077;-73
2022/11/14 07:13:20;;;;;;;92.82;32.13;;;;;;;1.08;100.00;101325.50;5058521;28;20208;-73
2022/11/14 07:16:04;;;;;;;92.00;30.25;;;;;;;1.20;100.00;101316.53;5067380;28;20123;-73
2022/11/14 07:18:49;;;;;;;99.85;31.75;;;;;;;1.18;100.00;101323.56;5068417;28;20052;-73
2022/11/14 07:21:34;;;;;;;90.90;30.80;;;;;;;1.13;100.00;101318.41;5068977;28;20063;-73
2022/11/14 07:24:18;;;;;;;90.50;31.33;;;;;;;1.18;100.00;101323.56;5062622;28;20051;-73
2022/11/14 07:27:07;;;;;;;88.97;34.50;;;;;;;1.17;100.00;101316.59;5064801;28;20503;-73
2022/11/14 07:29:51;;;;;;;87.88;31.60;;;;;;;1.18;100.00;101316.56;5069025;28;20123;-74
2022/11/14 07:32:35;;;;;;;85.25;30.48;;;;;;;1.25;100.00;101318.16;5062705;28;20802;-74
2022/11/14 07:35:19;;;;;;;91.07;30.33;;;;;;;1.24;100.00;101319.06;5056476;28;20059;-74
2022/11/14 07:38:04;;;;;;;89.18;30.75;;;;;;;1.35;100.00;101320.66;5066044;28;20047;-74
2022/11/14 07:40:59;;;;;;;86.88;31.10;;;;;;;1.26;100.00;101319.94;5065901;28;20105;-73
2022/11/14 07:43:43;;;;;;;81.90;29.23;;;;;;;1.35;100.00;101320.66;5055969;28;20056;-73
2022/11/14 07:46:27;;;;;;;85.60;28.27;;;;;;;1.29;100.00;101324.25;5066600;28;20059;-74
2022/11/14 07:49:12;;;;;;;83.80;29.58;;;;;;;1.39;100.00;101317.94;5063467;28;20412;-73
2022/11/14 07:51:55;;;;;;;90.43;29.42;;;;;;;1.53;100.00;101315.06;5065863;28;20166;-73
2022/11/14 07:54:39;;;;;;;85.63;28.45;;;;;;;1.57;100.00;101313.25;5067007;28;20083;-73
2022/11/14 07:57:23;;;;;;;72.80;27.95;;;;;;;1.48;100.00;101306.41;5071273;28;20047;-74
2022/11/14 08:00:09;;;;;;;88.45;31.83;;;;;;;1.51;100.00;101304.59;5057848;28;20128;-74
2022/11/14 08:02:53;;;;;;;76.43;28.38;;;;;;;1.56;100.00;101312.41;5067116;28;20091;-74
2022/11/14 08:05:37;;;;;;;84.32;29.23;;;;;;;1.74;100.00;101312.03;5058749;28;20071;-74
2022/11/14 08:08:21;;;;;;;76.45;28.80;;;;;;;1.80;100.00;101306.63;5062098;28;20869;-74
2022/11/14 08:11:05;;;;;;;86.57;30.05;;;;;;;1.81;100.00;101300.50;5062649;28;20066;-73
2022/11/14 08:13:49;;;;;;;77.78;28.85;;;;;;;1.85;100.00;101305.69;5064785;28;20039;-74
2022/11/14 08:16:33;;;;;;;79.07;29.23;;;;;;;1.92;100.00;101297.66;5059166;28;20130;-73
2022/11/14 08:19:17;;;;;;;82.07;30.98;;;;;;;2.03;100.00;101293.03;5064883;28;20835;-74
2022/11/14 08:22:01;;;;;;;70.63;28.33;;;;;;;2.15;100.00;101283.16;5062287;28;20047;-73
2022/11/14 08:24:45;;;;;;;72.78;28.92;;;;;;;2.21;100.00;101286.53;5061864;28;20199;-73
2022/11/14 08:27:29;;;;;;;78.68;29.40;;;;;;;2.35;100.00;101286.22;5056274;28;20052;-73
2022/11/14 08:30:13;;;;;;;71.65;29.08;;;;;;;2.48;100.00;101292.06;5062257;28;20055;-74
2022/11/14 08:33:01;;;;;;;75.80;28.38;;;;;;;2.58;100.00;101285.69;5056955;28;20075;-73
2022/11/14 08:35:45;;;;;;;78.22;29.52;;;;;;;2.60;100.00;101276.84;5061567;28;21101;-73
2022/11/14 08:38:30;;;;;;;75.47;30.52;;;;;;;2.65;100.00;101279.38;5053814;28;20174;-73
2022/11/14 08:41:14;;;;;;;73.30;29.92;;;;;;;2.82;100.00;101277.22;5069432;28;20114;-73
2022/11/14 08:43:58;;;;;;;63.03;24.20;;;;;;;2.85;100.00;101279.75;5061851;28;20458;-73
2022/11/14 08:46:42;;;;;;;68.57;27.15;;;;;;;2.89;100.00;101277.06;5063509;28;20050;-73
2022/11/14 08:49:26;;;;;;;64.18;26.77;;;;;;;2.93;100.00;101271.69;5057766;28;20806;-73
2022/11/14 08:52:10;;;;;;;62.65;26.35;;;;;;;3.02;100.00;101265.31;5060524;28;20079;-73
2022/11/14 08:54:53;;;;;;;63.67;25.00;;;;;;;3.11;100.00;101267.69;5068660;28;20047;-73
2022/11/14 08:57:37;;;;;;;62.83;27.38;;;;;;;3.24;100.00;101271.75;5065783;28;20101;-73
2022/11/14 09:00:21;;;;;;;62.75;25.60;;;;;;;3.35;100.00;101264.44;5059992;28;20559;-73
2022/11/14 09:03:07;;;;;;;62.08;26.23;;;;;;;3.47;100.00;101265.03;5062098;28;20677;-74
2022/11/14 09:05:52;;;;;;;47.03;20.83;;;;;;;3.57;100.00;101259.44;5059695;28;20455;-75
2022/11/14 09:08:36;;;;;;;52.92;21.98;;;;;;;3.66;100.00;101247.75;5060984;28;20712;-74
2022/11/14 09:11:20;;;;;;;61.72;25.80;;;;;;;3.77;100.00;101256.25;5062398;28;20047;-74
2022/11/14 09:14:04;;;;;;;53.05;23.15;;;;;;;3.82;100.00;101243.81;5068086;28;20558;-75
2022/11/14 09:16:48;;;;;;;50.53;22.25;;;;;;;3.90;100.00;101246.19;5059954;28;20059;-76
2022/11/14 09:19:32;;;;;;;53.92;21.92;;;;;;;3.98;100.00;101241.56;5069093;28;20071;-74
2022/11/14 09:22:16;;;;;;;48.83;21.40;;;;;;;4.06;100.00;101244.81;5051643;28;20169;-76
2022/11/14 09:25:00;;;;;;;52.63;22.65;;;;;;;4.16;100.00;101240.13;5060433;28;20098;-74
2022/11/14 09:27:44;;;;;;;43.08;19.92;;;;;;;4.27;100.00;101235.41;5058860;28;20044;-74
2022/11/14 09:30:28;;;;;;;50.95;23.17;;;;;;;4.41;100.00;101229.69;5060388;28;20098;-75
2022/11/14 09:33:12;;;;;;;49.60;21.77;;;;;;;4.56;100.00;101236.25;5056994;28;20043;-74
2022/11/14 09:35:57;;;;;;;41.47;18.80;;;;;;;4.46;100.00;101234.81;5067427;28;20040;-74
2022/11/14 09:38:43;;;;;;;50.70;21.75;;;;;;;4.58;100.00;101239.72;5066490;28;20039;-74
2022/11/14 09:41:45;;;;;;;47.17;19.25;;;;;;;4.59;100.00;101236.16;5059837;28;20059;-74
2022/11/14 09:44:48;;;;;;;48.85;23.00;;;;;;;4.69;100.00;101242.88;5055495;28;20122;-74
2022/11/14 09:47:40;;;;;;;50.45;23.17;;;;;;;4.85;100.00;101237.94;5059862;28;20070;-74
2022/11/14 09:50:30;;;;;;;46.35;19.33;;;;;;;4.93;100.00;101231.50;5058853;28;20090;-75
2022/11/14 09:53:26;;;;;;;48.53;21.27;;;;;;;5.10;100.00;101233.56;5055371;28;20059;-74
2022/11/14 09:56:13;;;;;;;49.17;22.70;;;;;;;5.26;100.00;101225.94;5064245;28;20863;-74
2022/11/14 09:58:57;;;;;;;50.10;21.98;;;;;;;5.41;100.00;101216.63;5062714;28;20052;-76
2022/11/14 10:02:04;;;;;;;37.00;18.33;;;;;;;5.64;100.00;101215.78;5059070;28;20039;-74
2022/11/14 10:05:14;;;;;;;43.88;21.23;;;;;;;5.79;100.00;101204.63;5057354;28;20121;-74
2022/11/14 10:08:09;;;;;;;42.92;20.95;;;;;;;6.06;100.00;101212.47;5059962;28;20051;-75
2022/11/14 10:11:00;;;;;;;42.05;18.70;;;;;;;6.11;100.00;101202.56;5070414;28;20051;-75
2022/11/14 10:13:56;;;;;;;34.13;16.90;;;;;;;6.29;100.00;101201.84;5059144;28;20582;-74
2022/11/14 10:16:58;;;;;;;38.80;17.55;;;;;;;6.55;100.00;101189.34;5061912;28;20064;-74
2022/11/14 10:19:52;;;;;;;40.17;18.27;;;;;;;6.66;100.00;101187.94;5065775;28;20056;-74
2022/11/14 10:23:02;;;;;;;41.67;20.17;;;;;;;6.80;100.00;101178.56;5061286;28;20059;-74
2022/11/14 10:26:14;;;;;;;40.10;17.45;;;;;;;6.84;100.00;101173.06;5063520;28;20136;-75
2022/11/14 10:29:13;;;;;;;40.42;20.10;;;;;;;6.77;100.00;101174.25;5072847;28;20209;-74
2022/11/14 10:32:15;;;;;;;41.92;19.70;;;;;;;6.89;100.00;101171.09;5072476;28;20059;-74
2022/11/14 10:35:24;;;;;;;38.38;17.75;;;;;;;6.94;100.00;101176.19;5057551;28;20124;-75
2022/11/14 10:38:17;;;;;;;39.35;18.10;;;;;;;6.98;100.00;101167.19;5069407;28;20047;-74
2022/11/14 10:41:03;;;;;;;;;;;;;;;6.93;100.00;101162.09;5057530;28;20109;-75
2022/11/14 10:43:49;;;;;;;42.88;18.00;;;;;;;7.04;100.00;101160.75;5070871;28;20014;-75
2022/11/14 10:46:56;;;;;;;39.80;18.58;;;;;;;7.15;100.00;101167.31;5070107;28;20064;-74
2022/11/14 10:49:42;;;;;;;40.40;19.80;;;;;;;7.13;100.00;101166.53;5061160;28;20124;-74
2022/11/14 10:52:37;;;;;;;38.53;20.20;;;;;;;7.03;100.00;101172.25;5058059;28;20101;-74
2022/11/14 10:55:23;;;;;;;35.83;16.75;;;;;;;6.96;100.00;101159.28;5065421;28;20087;-74
2022/11/14 10:58:12;;;;;;;42.65;18.98;;;;;;;7.20;100.00;101167.09;5064771;28;20069;-74
2022/11/14 11:01:17;;;;;;;40.53;19.70;;;;;;;7.20;100.00;101161.81;5066978;28;20044;-75
2022/11/14 11:04:12;;;;;;;39.70;18.88;;;;;;;7.22;100.00;101158.13;5072541;28;20134;-75
2022/11/14 11:13:46;;;;;;;39.85;20.13;;;;;;;7.42;100.00;101151.94;5061054;28;20048;-73
2022/11/14 11:16:30;;;;;;;40.55;20.90;;;;;;;7.76;100.00;101145.94;5061866;28;20067;-75
2022/11/14 11:19:25;;;;;;;42.42;21.13;;;;;;;8.12;100.00;101152.22;5060276;28;20513;-74
2022/11/14 11:22:24;;;;;;;41.08;19.88;;;;;;;7.95;100.00;101143.28;5065597;28;20138;-74
2022/11/14 11:25:23;;;;;;;46.58;21.90;;;;;;;8.37;100.00;101150.13;5060966;28;20864;-74
2022/11/14 11:28:14;;;;;;;44.30;19.75;;;;;;;7.86;100.00;101146.38;5063046;28;20093;-75
2022/11/14 11:31:03;;;;;;;41.03;21.38;;;;;;;8.14;100.00;101156.56;5058999;28;20047;-74
2022/11/14 11:33:48;;;;;;;44.88;22.88;;;;;;;8.37;100.00;101151.94;5046987;28;20125;-74
2022/11/14 11:36:39;;;;;;;49.13;23.70;;;;;;;8.28;100.00;101143.47;5064117;28;20561;-74
2022/11/14 11:39:28;;;;;;;40.40;20.60;;;;;;;8.06;100.00;101150.75;5065777;28;20130;-75
2022/11/14 11:42:19;;;;;;;46.35;23.25;;;;;;;8.02;100.00;101146.50;5068203;28;20047;-74
2022/11/14 11:45:11;;;;;;;42.75;20.70;;;;;;;7.96;100.00;101142.34;5065402;28;20090;-75
2022/11/14 11:47:57;;;;;;;47.97;23.27;;;;;;;7.97;100.00;101146.72;5069021;28;20087;-74
2022/11/14 11:50:42;;;;;;;44.22;22.65;;;;;;;7.95;100.00;101140.63;5059748;28;20083;-74
2022/11/14 11:53:40;;;;;;;47.38;22.85;;;;;;;7.83;100.00;101148.31;5061382;28;20051;-73
2022/11/14 11:56:29;;;;;;;43.83;21.88;;;;;;;7.76;100.00;101147.75;5067711;28;20055;-74
2022/11/14 11:59:41;;;;;;;44.85;22.05;;;;;;;7.79;100.00;101140.50;5062710;28;20843;-74
2022/11/14 12:02:26;;;;;;;39.83;21.17;;;;;;;7.78;100.00;101133.47;5062969;28;20581;-74
2022/11/14 12:05:28;;;;;;;41.78;20.48;;;;;;;7.79;100.00;101121.91;5057902;28;20050;-75
2022/11/14 12:08:45;;;;;;;48.63;21.27;;;;;;;7.85;100.00;101125.22;5067884;28;20047;-73
2022/11/14 12:11:32;;;;;;;40.03;19.15;;;;;;;7.79;100.00;101118.41;5065430;28;20112;-73
2022/11/14 12:14:44;;;;;;;43.25;21.73;;;;;;;7.87;100.00;101110.06;5051059;28;20473;-74
2022/11/14 12:18:01;;;;;;;45.72;21.55;;;;;;;7.81;100.00;101116.53;5052549;28;20789;-75
2022/11/14 12:21:05;;;;;;;40.28;19.63;;;;;;;7.73;100.00;101105.41;5068729;28;20412;-74
2022/11/14 12:23:55;;;;;;;42.42;20.02;;;;;;;7.80;100.00;101106.84;5043703;28;20113;-74
2022/11/14 12:26:53;;;;;;;38.90;19.17;;;;;;;7.74;100.00;101102.69;5059943;28;20113;-75
2022/11/14 12:30:06;;;;;;;43.92;21.70;;;;;;;7.68;100.00;101102.09;5060195;28;20050;-74
2022/11/14 12:33:07;;;;;;;42.83;21.00;;;;;;;7.66;100.00;101099.53;5066865;28;20058;-74
2022/11/14 12:35:55;;;;;;;37.00;19.52;;;;;;;7.77;100.00;101089.25;5057995;28;20099;-74
2022/11/14 12:38:47;;;;;;;37.28;20.05;;;;;;;8.00;100.00;101080.19;5061699;28;20192;-74
2022/11/14 12:41:34;;;;;;;35.92;18.50;;;;;;;8.03;100.00;101076.50;5065381;28;20140;-74
2022/11/14 12:44:37;;;;;;;33.97;18.63;;;;;;;8.23;100.00;101062.25;5070062;28;20071;-74